Spirit Of New Jersey — WCX9137 — position and weather

sailwx.info

Track history (hours):
 
Tides and Currents Weather Stations Pressure Air Temp Water Temp Dewpoint Dewpoint Depression Visibility Wind Speed Wind Dir Waves Ship Positions

Spirit Of New Jersey

Owner: SPIRIT CRUISES, NEW YORK, NY. More information available from US FCC via Universal Licensing System and Coast Guard Vessel Documentation Center.

Last reported at 2017-Nov-19 05:08 UTC. Time now 2017-Nov-21 12:11 UTC.
Position N 40°45' W 074°01'.

MMSI: 364919326.

Date/timePositionNaut miles runAvg speedWind from/ knotsBaromVisibWave heightAir tempDewpointWater temp
2017-Nov-19 05:08N 40°45' W 074°01'0 0.9
2017-Nov-19 05:00N 40°45' W 074°01'1 1.4
2017-Nov-19 04:30N 40°46' W 074°01'0 0.0
2017-Nov-19 04:00N 40°46' W 074°01'0 0.8
2017-Nov-19 03:30N 40°45' W 074°01'4 8.5
2017-Nov-19 03:00N 40°41' W 074°03'2 3.3
2017-Nov-19 02:30N 40°42' W 074°00'3 6.7
2017-Nov-19 02:00N 40°45' W 074°01'0 0.9
2017-Nov-19 01:30N 40°46' W 074°01'0 0.0
2017-Nov-19 01:00N 40°46' W 074°01'0 0.1
2017-Nov-19 00:30N 40°46' W 074°01'1 1.5
2017-Nov-19 00:00N 40°45' W 074°01'0 0.0
2017-Nov-18 23:30N 40°45' W 074°01'0 0.0
2017-Nov-18 23:00N 40°45' W 074°01'1 1.1
2017-Nov-18 22:30N 40°44' W 074°01'3 6.9
2017-Nov-18 22:00N 40°41' W 074°03'2 3.8
2017-Nov-18 21:30N 40°42' W 074°00'3 6.0
2017-Nov-18 21:00N 40°45' W 074°01'0 0.1
2017-Nov-18 20:30N 40°45' W 074°01'0 0.0
2017-Nov-18 03:38N 40°45' W 074°01'0 1.9
2017-Nov-18 03:30N 40°45' W 074°01'1 1.1
2017-Nov-18 03:00N 40°46' W 074°01'0 0.0
2017-Nov-18 02:30N 40°46' W 074°01'2 4.2
2017-Nov-18 02:00N 40°43' W 074°01'2 3.5
2017-Nov-18 01:30N 40°42' W 074°02'1 2.0
2017-Nov-18 01:00N 40°43' W 074°01'2 4.5
2017-Nov-18 00:30N 40°45' W 074°01'1 1.5
2017-Nov-18 00:00N 40°46' W 074°01'0 0.0
2017-Nov-17 23:30N 40°46' W 074°01'0 0.0
2017-Nov-17 23:00N 40°46' W 074°01'0 0.1
2017-Nov-17 22:30N 40°46' W 074°01'1 1.5
2017-Nov-17 22:00N 40°45' W 074°01'0 0.0
2017-Nov-17 21:30N 40°45' W 074°01'0 0.0
2017-Nov-17 21:00N 40°45' W 074°01'0 0.0
2017-Nov-17 20:30N 40°45' W 074°01'0 0.0
2017-Nov-17 20:00N 40°45' W 074°01'0 0.0
2017-Nov-17 19:30N 40°45' W 074°01'0 0.0
2017-Nov-17 19:00N 40°45' W 074°01'0 0.0
2017-Nov-17 18:30N 40°45' W 074°01'0 0.0
2017-Nov-17 18:00N 40°45' W 074°01'0 0.0
2017-Nov-17 17:30N 40°45' W 074°01'0 0.0
2017-Nov-17 17:00N 40°45' W 074°01'0 0.0
2017-Nov-17 16:30N 40°45' W 074°01'0 0.0
2017-Nov-17 16:00N 40°45' W 074°01'0 0.0
2017-Nov-17 15:30N 40°45' W 074°01'0 0.0
2017-Nov-17 15:00N 40°45' W 074°01'2 4.0
2017-Nov-17 14:30N 40°43' W 074°01'0 0.4
2017-Nov-17 14:00N 40°43' W 074°02'3 5.4
2017-Nov-17 13:30N 40°46' W 074°01'0 0.0
2017-Nov-17 13:00N 40°46' W 074°01'0 0.0
2017-Nov-17 12:30N 40°46' W 074°01'1 1.6
2017-Nov-17 12:00N 40°45' W 074°01'  
2017-Nov-13 02:00N 40°43' W 074°02'2 4.4
2017-Nov-13 01:30N 40°41' W 074°02'2 4.4
2017-Nov-13 01:00N 40°42' W 073°60'2 4.2
2017-Nov-13 00:30N 40°44' W 074°01'1 2.8
2017-Nov-13 00:00N 40°46' W 074°01'0 0.0
2017-Nov-12 23:30N 40°46' W 074°01'0 0.0
2017-Nov-12 23:00N 40°46' W 074°01'1 1.3
2017-Nov-12 22:30N 40°45' W 074°01'0 0.3
2017-Nov-12 22:00N 40°45' W 074°01'0 0.0
2017-Nov-12 21:30N 40°45' W 074°01'0 0.0
2017-Nov-12 21:00N 40°45' W 074°01'0 0.0
2017-Nov-12 20:29N 40°45' W 074°01'0 0.0
2017-Nov-12 03:46N 40°45' W 074°01'1 2.7
2017-Nov-12 03:30N 40°46' W 074°01'0 0.1
2017-Nov-12 03:00N 40°46' W 074°01'2 4.4
2017-Nov-12 02:30N 40°43' W 074°02'2 4.7
2017-Nov-12 02:00N 40°41' W 074°03'3 5.6
2017-Nov-12 01:30N 40°42' W 073°59'0 0.1
2017-Nov-12 01:01N 40°42' W 073°59'2 3.7
2017-Nov-12 00:30N 40°44' W 074°01'2 3.9
2017-Nov-12 00:00N 40°46' W 074°01'0 0.0
2017-Nov-11 23:30N 40°46' W 074°01'0 0.0
2017-Nov-11 23:00N 40°46' W 074°01'1 1.5
2017-Nov-11 22:30N 40°45' W 074°01'0 0.0
2017-Nov-11 20:07N 40°45' W 074°01'0 0.1
2017-Nov-11 20:00N 40°45' W 074°01'1 1.6
2017-Nov-11 19:30N 40°46' W 074°01'0 0.0
2017-Nov-11 19:00N 40°46' W 074°01'1 1.7
2017-Nov-11 18:30N 40°45' W 074°01'4 7.2
2017-Nov-11 18:00N 40°41' W 074°02'2 3.2
2017-Nov-11 17:30N 40°43' W 074°01'3 5.9
2017-Nov-11 17:00N 40°46' W 074°01'0 0.0
2017-Nov-11 16:30N 40°46' W 074°01'0 0.2
2017-Nov-11 16:00N 40°46' W 074°01'1 1.6
2017-Nov-11 15:30N 40°45' W 074°01'0 0.0
2017-Nov-11 15:00N 40°45' W 074°01'  
Track history (hours):
 
Tides and Currents Weather Stations Pressure Air Temp Water Temp Dewpoint Dewpoint Depression Visibility Wind Speed Wind Dir Waves Ship Positions

Spirit Of New Jersey

Owner: SPIRIT CRUISES, NEW YORK, NY. More information available from US FCC via Universal Licensing System and Coast Guard Vessel Documentation Center.

Last reported at 2017-Nov-19 05:08 UTC. Time now 2017-Nov-21 12:11 UTC.
Position N 40°45' W 074°01'.

MMSI: 364919326.

Date/timePositionNaut miles runAvg speedWind from/ knotsBaromVisibWave heightAir tempDewpointWater temp
2017-Nov-19 05:08N 40°45' W 074°01'0 0.9
2017-Nov-19 05:00N 40°45' W 074°01'1 1.4
2017-Nov-19 04:30N 40°46' W 074°01'0 0.0
2017-Nov-19 04:00N 40°46' W 074°01'0 0.8
2017-Nov-19 03:30N 40°45' W 074°01'4 8.5
2017-Nov-19 03:00N 40°41' W 074°03'2 3.3
2017-Nov-19 02:30N 40°42' W 074°00'3 6.7
2017-Nov-19 02:00N 40°45' W 074°01'0 0.9
2017-Nov-19 01:30N 40°46' W 074°01'0 0.0
2017-Nov-19 01:00N 40°46' W 074°01'0 0.1
2017-Nov-19 00:30N 40°46' W 074°01'1 1.5
2017-Nov-19 00:00N 40°45' W 074°01'0 0.0
2017-Nov-18 23:30N 40°45' W 074°01'0 0.0
2017-Nov-18 23:00N 40°45' W 074°01'1 1.1
2017-Nov-18 22:30N 40°44' W 074°01'3 6.9
2017-Nov-18 22:00N 40°41' W 074°03'2 3.8
2017-Nov-18 21:30N 40°42' W 074°00'3 6.0
2017-Nov-18 21:00N 40°45' W 074°01'0 0.1
2017-Nov-18 20:30N 40°45' W 074°01'0 0.0
2017-Nov-18 03:38N 40°45' W 074°01'0 1.9
2017-Nov-18 03:30N 40°45' W 074°01'1 1.1
2017-Nov-18 03:00N 40°46' W 074°01'0 0.0
2017-Nov-18 02:30N 40°46' W 074°01'2 4.2
2017-Nov-18 02:00N 40°43' W 074°01'2 3.5
2017-Nov-18 01:30N 40°42' W 074°02'1 2.0
2017-Nov-18 01:00N 40°43' W 074°01'2 4.5
2017-Nov-18 00:30N 40°45' W 074°01'1 1.5
2017-Nov-18 00:00N 40°46' W 074°01'0 0.0
2017-Nov-17 23:30N 40°46' W 074°01'0 0.0
2017-Nov-17 23:00N 40°46' W 074°01'0 0.1
2017-Nov-17 22:30N 40°46' W 074°01'1 1.5
2017-Nov-17 22:00N 40°45' W 074°01'0 0.0
2017-Nov-17 21:30N 40°45' W 074°01'0 0.0
2017-Nov-17 21:00N 40°45' W 074°01'0 0.0
2017-Nov-17 20:30N 40°45' W 074°01'0 0.0
2017-Nov-17 20:00N 40°45' W 074°01'0 0.0
2017-Nov-17 19:30N 40°45' W 074°01'0 0.0
2017-Nov-17 19:00N 40°45' W 074°01'0 0.0
2017-Nov-17 18:30N 40°45' W 074°01'0 0.0
2017-Nov-17 18:00N 40°45' W 074°01'0 0.0
2017-Nov-17 17:30N 40°45' W 074°01'0 0.0
2017-Nov-17 17:00N 40°45' W 074°01'0 0.0
2017-Nov-17 16:30N 40°45' W 074°01'0 0.0
2017-Nov-17 16:00N 40°45' W 074°01'0 0.0
2017-Nov-17 15:30N 40°45' W 074°01'0 0.0
2017-Nov-17 15:00N 40°45' W 074°01'2 4.0
2017-Nov-17 14:30N 40°43' W 074°01'0 0.4
2017-Nov-17 14:00N 40°43' W 074°02'3 5.4
2017-Nov-17 13:30N 40°46' W 074°01'0 0.0
2017-Nov-17 13:00N 40°46' W 074°01'0 0.0
2017-Nov-17 12:30N 40°46' W 074°01'1 1.6
2017-Nov-17 12:00N 40°45' W 074°01'  
2017-Nov-13 02:00N 40°43' W 074°02'2 4.4
2017-Nov-13 01:30N 40°41' W 074°02'2 4.4
2017-Nov-13 01:00N 40°42' W 073°60'2 4.2
2017-Nov-13 00:30N 40°44' W 074°01'1 2.8
2017-Nov-13 00:00N 40°46' W 074°01'0 0.0
2017-Nov-12 23:30N 40°46' W 074°01'0 0.0
2017-Nov-12 23:00N 40°46' W 074°01'1 1.3
2017-Nov-12 22:30N 40°45' W 074°01'0 0.3
2017-Nov-12 22:00N 40°45' W 074°01'0 0.0
2017-Nov-12 21:30N 40°45' W 074°01'0 0.0
2017-Nov-12 21:00N 40°45' W 074°01'0 0.0
2017-Nov-12 20:29N 40°45' W 074°01'0 0.0
2017-Nov-12 03:46N 40°45' W 074°01'1 2.7
2017-Nov-12 03:30N 40°46' W 074°01'0 0.1
2017-Nov-12 03:00N 40°46' W 074°01'2 4.4
2017-Nov-12 02:30N 40°43' W 074°02'2 4.7
2017-Nov-12 02:00N 40°41' W 074°03'3 5.6
2017-Nov-12 01:30N 40°42' W 073°59'0 0.1
2017-Nov-12 01:01N 40°42' W 073°59'2 3.7
2017-Nov-12 00:30N 40°44' W 074°01'2 3.9
2017-Nov-12 00:00N 40°46' W 074°01'0 0.0
2017-Nov-11 23:30N 40°46' W 074°01'0 0.0
2017-Nov-11 23:00N 40°46' W 074°01'1 1.5
2017-Nov-11 22:30N 40°45' W 074°01'0 0.0
2017-Nov-11 20:07N 40°45' W 074°01'0 0.1
2017-Nov-11 20:00N 40°45' W 074°01'1 1.6
2017-Nov-11 19:30N 40°46' W 074°01'0 0.0
2017-Nov-11 19:00N 40°46' W 074°01'1 1.7
2017-Nov-11 18:30N 40°45' W 074°01'4 7.2
2017-Nov-11 18:00N 40°41' W 074°02'2 3.2
2017-Nov-11 17:30N 40°43' W 074°01'3 5.9
2017-Nov-11 17:00N 40°46' W 074°01'0 0.0
2017-Nov-11 16:30N 40°46' W 074°01'0 0.2
2017-Nov-11 16:00N 40°46' W 074°01'1 1.6
2017-Nov-11 15:30N 40°45' W 074°01'0 0.0
2017-Nov-11 15:00N 40°45' W 074°01'  

Dump ship's entire track history